sensor_id;sensor_type;location;lat;lon;timestamp;P1;durP1;ratioP1;P2;durP2;ratioP2
81807;SDS011;71241;13.676;100.700;2024-02-15T00:01:23;57.67;;;45.67;;
81807;SDS011;71241;13.676;100.700;2024-02-15T00:03:54;57.72;;;45.30;;
81807;SDS011;71241;13.676;100.700;2024-02-15T00:06:25;58.33;;;45.22;;
81807;SDS011;71241;13.676;100.700;2024-02-15T00:08:57;52.88;;;42.75;;
81807;SDS011;71241;13.676;100.700;2024-02-15T00:11:27;54.20;;;44.38;;
81807;SDS011;71241;13.676;100.700;2024-02-15T00:13:58;62.97;;;47.60;;
81807;SDS011;71241;13.676;100.700;2024-02-15T00:16:29;59.60;;;46.40;;
81807;SDS011;71241;13.676;100.700;2024-02-15T00:18:59;67.50;;;49.00;;
81807;SDS011;71241;13.676;100.700;2024-02-15T00:21:30;73.57;;;52.97;;
81807;SDS011;71241;13.676;100.700;2024-02-15T00:24:03;76.55;;;55.30;;
81807;SDS011;71241;13.676;100.700;2024-02-15T00:26:33;80.00;;;60.28;;
81807;SDS011;71241;13.676;100.700;2024-02-15T00:29:03;76.15;;;60.50;;
81807;SDS011;71241;13.676;100.700;2024-02-15T00:31:34;75.65;;;57.88;;
81807;SDS011;71241;13.676;100.700;2024-02-15T00:34:05;76.13;;;59.25;;
81807;SDS011;71241;13.676;100.700;2024-02-15T00:36:36;85.85;;;63.85;;
81807;SDS011;71241;13.676;100.700;2024-02-15T00:39:08;85.82;;;62.63;;
81807;SDS011;71241;13.676;100.700;2024-02-15T00:41:40;79.88;;;59.13;;
81807;SDS011;71241;13.676;100.700;2024-02-15T00:44:11;83.35;;;58.88;;
81807;SDS011;71241;13.676;100.700;2024-02-15T00:46:41;89.13;;;65.90;;
81807;SDS011;71241;13.676;100.700;2024-02-15T00:49:12;88.22;;;66.28;;
81807;SDS011;71241;13.676;100.700;2024-02-15T00:51:42;86.05;;;67.63;;
81807;SDS011;71241;13.676;100.700;2024-02-15T00:54:14;91.25;;;65.88;;
81807;SDS011;71241;13.676;100.700;2024-02-15T00:56:45;91.05;;;66.57;;
81807;SDS011;71241;13.676;100.700;2024-02-15T00:59:16;93.85;;;70.63;;
81807;SDS011;71241;13.676;100.700;2024-02-15T01:01:49;94.70;;;72.85;;
81807;SDS011;71241;13.676;100.700;2024-02-15T01:04:19;97.95;;;70.47;;
81807;SDS011;71241;13.676;100.700;2024-02-15T01:06:50;93.05;;;70.78;;
81807;SDS011;71241;13.676;100.700;2024-02-15T01:09:23;97.13;;;72.20;;
81807;SDS011;71241;13.676;100.700;2024-02-15T01:11:53;101.18;;;74.72;;
81807;SDS011;71241;13.676;100.700;2024-02-15T01:14:23;103.45;;;79.45;;
81807;SDS011;71241;13.676;100.700;2024-02-15T01:16:59;92.30;;;71.15;;
81807;SDS011;71241;13.676;100.700;2024-02-15T01:19:29;100.70;;;68.38;;
81807;SDS011;71241;13.676;100.700;2024-02-15T01:22:00;98.68;;;73.57;;
81807;SDS011;71241;13.676;100.700;2024-02-15T01:24:33;101.97;;;76.22;;
81807;SDS011;71241;13.676;100.700;2024-02-15T01:27:03;97.95;;;71.40;;
81807;SDS011;71241;13.676;100.700;2024-02-15T01:29:36;100.03;;;74.63;;
81807;SDS011;71241;13.676;100.700;2024-02-15T01:32:06;104.13;;;71.82;;
81807;SDS011;71241;13.676;100.700;2024-02-15T01:34:36;101.28;;;77.32;;
81807;SDS011;71241;13.676;100.700;2024-02-15T01:37:07;97.93;;;76.32;;
81807;SDS011;71241;13.676;100.700;2024-02-15T01:39:40;100.43;;;74.80;;
81807;SDS011;71241;13.676;100.700;2024-02-15T01:42:10;99.47;;;74.07;;
81807;SDS011;71241;13.676;100.700;2024-02-15T01:44:41;102.57;;;74.07;;
81807;SDS011;71241;13.676;100.700;2024-02-15T01:47:13;93.55;;;66.20;;
81807;SDS011;71241;13.676;100.700;2024-02-15T01:49:44;96.82;;;69.72;;
81807;SDS011;71241;13.676;100.700;2024-02-15T01:52:14;85.07;;;63.40;;
81807;SDS011;71241;13.676;100.700;2024-02-15T01:54:47;89.18;;;69.00;;
81807;SDS011;71241;13.676;100.700;2024-02-15T01:57:18;90.97;;;70.85;;
81807;SDS011;71241;13.676;100.700;2024-02-15T01:59:50;80.55;;;57.22;;
81807;SDS011;71241;13.676;100.700;2024-02-15T02:02:21;90.60;;;66.25;;
81807;SDS011;71241;13.676;100.700;2024-02-15T02:04:52;85.25;;;61.38;;
81807;SDS011;71241;13.676;100.700;2024-02-15T02:07:23;100.20;;;68.88;;
81807;SDS011;71241;13.676;100.700;2024-02-15T02:09:55;79.38;;;57.90;;
81807;SDS011;71241;13.676;100.700;2024-02-15T02:12:25;68.25;;;52.72;;
81807;SDS011;71241;13.676;100.700;2024-02-15T02:14:59;77.13;;;58.72;;
81807;SDS011;71241;13.676;100.700;2024-02-15T02:17:29;74.13;;;56.90;;
81807;SDS011;71241;13.676;100.700;2024-02-15T02:19:59;73.15;;;56.72;;
81807;SDS011;71241;13.676;100.700;2024-02-15T02:22:30;70.07;;;55.65;;
81807;SDS011;71241;13.676;100.700;2024-02-15T02:25:03;71.07;;;54.13;;
81807;SDS011;71241;13.676;100.700;2024-02-15T02:27:36;66.22;;;50.38;;
81807;SDS011;71241;13.676;100.700;2024-02-15T02:30:12;71.50;;;52.97;;
81807;SDS011;71241;13.676;100.700;2024-02-15T02:32:46;63.60;;;54.08;;
81807;SDS011;71241;13.676;100.700;2024-02-15T02:35:17;66.38;;;53.08;;
81807;SDS011;71241;13.676;100.700;2024-02-15T02:37:49;71.25;;;52.90;;
81807;SDS011;71241;13.676;100.700;2024-02-15T02:40:21;59.42;;;48.78;;
81807;SDS011;71241;13.676;100.700;2024-02-15T02:42:52;65.20;;;53.95;;
81807;SDS011;71241;13.676;100.700;2024-02-15T02:45:25;61.25;;;50.58;;
81807;SDS011;71241;13.676;100.700;2024-02-15T02:47:55;72.25;;;57.92;;
81807;SDS011;71241;13.676;100.700;2024-02-15T02:50:25;68.57;;;54.40;;
81807;SDS011;71241;13.676;100.700;2024-02-15T02:52:56;70.18;;;55.72;;
81807;SDS011;71241;13.676;100.700;2024-02-15T02:55:28;60.08;;;50.45;;
81807;SDS011;71241;13.676;100.700;2024-02-15T02:57:59;66.05;;;48.10;;
81807;SDS011;71241;13.676;100.700;2024-02-15T03:00:33;63.55;;;48.08;;
81807;SDS011;71241;13.676;100.700;2024-02-15T03:03:04;57.90;;;45.70;;
81807;SDS011;71241;13.676;100.700;2024-02-15T03:05:35;58.38;;;42.97;;
81807;SDS011;71241;13.676;100.700;2024-02-15T03:08:05;57.83;;;43.60;;
81807;SDS011;71241;13.676;100.700;2024-02-15T03:10:39;45.75;;;38.10;;
81807;SDS011;71241;13.676;100.700;2024-02-15T03:13:09;51.33;;;44.22;;
81807;SDS011;71241;13.676;100.700;2024-02-15T03:15:40;42.28;;;35.30;;
81807;SDS011;71241;13.676;100.700;2024-02-15T03:18:11;38.75;;;33.97;;
81807;SDS011;71241;13.676;100.700;2024-02-15T03:20:41;37.95;;;32.13;;
81807;SDS011;71241;13.676;100.700;2024-02-15T03:23:12;43.85;;;39.10;;
81807;SDS011;71241;13.676;100.700;2024-02-15T03:25:44;55.47;;;47.95;;
81807;SDS011;71241;13.676;100.700;2024-02-15T03:28:15;44.53;;;38.53;;
81807;SDS011;71241;13.676;100.700;2024-02-15T03:30:45;42.92;;;38.35;;
81807;SDS011;71241;13.676;100.700;2024-02-15T03:33:15;43.90;;;38.25;;
81807;SDS011;71241;13.676;100.700;2024-02-15T03:35:46;39.20;;;33.75;;
81807;SDS011;71241;13.676;100.700;2024-02-15T03:38:17;42.53;;;34.58;;
81807;SDS011;71241;13.676;100.700;2024-02-15T03:40:49;43.17;;;35.97;;
81807;SDS011;71241;13.676;100.700;2024-02-15T03:43:19;38.33;;;31.80;;
81807;SDS011;71241;13.676;100.700;2024-02-15T03:45:50;42.05;;;36.38;;
81807;SDS011;71241;13.676;100.700;2024-02-15T03:48:20;38.00;;;33.70;;
81807;SDS011;71241;13.676;100.700;2024-02-15T03:50:50;39.65;;;35.40;;
81807;SDS011;71241;13.676;100.700;2024-02-15T03:53:22;42.70;;;31.60;;
81807;SDS011;71241;13.676;100.700;2024-02-15T03:55:54;37.13;;;33.25;;
81807;SDS011;71241;13.676;100.700;2024-02-15T03:58:25;39.30;;;35.13;;
81807;SDS011;71241;13.676;100.700;2024-02-15T04:00:56;39.88;;;33.38;;
81807;SDS011;71241;13.676;100.700;2024-02-15T04:03:27;38.47;;;30.50;;
81807;SDS011;71241;13.676;100.700;2024-02-15T04:06:01;40.05;;;33.67;;
81807;SDS011;71241;13.676;100.700;2024-02-15T04:08:31;40.70;;;33.33;;
81807;SDS011;71241;13.676;100.700;2024-02-15T04:11:04;43.40;;;37.75;;
81807;SDS011;71241;13.676;100.700;2024-02-15T04:13:39;42.92;;;35.78;;
81807;SDS011;71241;13.676;100.700;2024-02-15T04:16:09;35.20;;;31.40;;
81807;SDS011;71241;13.676;100.700;2024-02-15T04:18:39;43.17;;;38.53;;
81807;SDS011;71241;13.676;100.700;2024-02-15T04:21:11;37.60;;;33.78;;
81807;SDS011;71241;13.676;100.700;2024-02-15T04:23:42;50.47;;;42.88;;
81807;SDS011;71241;13.676;100.700;2024-02-15T04:26:15;41.92;;;36.28;;
81807;SDS011;71241;13.676;100.700;2024-02-15T04:28:46;37.58;;;31.60;;
81807;SDS011;71241;13.676;100.700;2024-02-15T04:31:17;41.13;;;33.25;;
81807;SDS011;71241;13.676;100.700;2024-02-15T04:33:47;37.40;;;32.58;;
81807;SDS011;71241;13.676;100.700;2024-02-15T04:36:18;38.53;;;34.47;;
81807;SDS011;71241;13.676;100.700;2024-02-15T04:38:52;34.67;;;29.67;;
81807;SDS011;71241;13.676;100.700;2024-02-15T04:41:24;32.63;;;28.80;;
81807;SDS011;71241;13.676;100.700;2024-02-15T04:43:54;39.85;;;35.10;;
81807;SDS011;71241;13.676;100.700;2024-02-15T04:46:25;41.47;;;36.67;;
81807;SDS011;71241;13.676;100.700;2024-02-15T04:48:55;41.85;;;37.45;;
81807;SDS011;71241;13.676;100.700;2024-02-15T04:51:29;42.03;;;37.60;;
81807;SDS011;71241;13.676;100.700;2024-02-15T04:53:59;40.42;;;35.30;;
81807;SDS011;71241;13.676;100.700;2024-02-15T04:56:32;39.13;;;35.15;;
81807;SDS011;71241;13.676;100.700;2024-02-15T04:59:03;41.03;;;36.63;;
81807;SDS011;71241;13.676;100.700;2024-02-15T05:01:37;43.10;;;38.03;;
81807;SDS011;71241;13.676;100.700;2024-02-15T05:04:11;38.17;;;33.97;;
81807;SDS011;71241;13.676;100.700;2024-02-15T05:06:42;45.28;;;40.47;;
81807;SDS011;71241;13.676;100.700;2024-02-15T05:09:14;41.88;;;36.60;;
81807;SDS011;71241;13.676;100.700;2024-02-15T05:11:49;39.88;;;34.22;;
81807;SDS011;71241;13.676;100.700;2024-02-15T05:14:19;39.40;;;35.40;;
81807;SDS011;71241;13.676;100.700;2024-02-15T05:16:50;46.88;;;39.03;;
81807;SDS011;71241;13.676;100.700;2024-02-15T05:19:20;42.08;;;35.17;;
81807;SDS011;71241;13.676;100.700;2024-02-15T05:21:51;40.67;;;36.05;;
81807;SDS011;71241;13.676;100.700;2024-02-15T05:24:21;41.13;;;36.83;;
81807;SDS011;71241;13.676;100.700;2024-02-15T05:26:53;43.80;;;37.42;;
81807;SDS011;71241;13.676;100.700;2024-02-15T05:29:24;43.08;;;38.03;;
81807;SDS011;71241;13.676;100.700;2024-02-15T05:31:54;41.25;;;37.03;;
81807;SDS011;71241;13.676;100.700;2024-02-15T05:34:25;40.00;;;35.75;;
81807;SDS011;71241;13.676;100.700;2024-02-15T05:36:58;42.25;;;34.47;;
81807;SDS011;71241;13.676;100.700;2024-02-15T05:39:29;40.75;;;36.38;;
81807;SDS011;71241;13.676;100.700;2024-02-15T05:42:01;42.90;;;36.85;;
81807;SDS011;71241;13.676;100.700;2024-02-15T05:44:31;40.67;;;35.60;;
81807;SDS011;71241;13.676;100.700;2024-02-15T05:47:04;38.85;;;34.70;;
81807;SDS011;71241;13.676;100.700;2024-02-15T05:49:34;40.65;;;36.30;;
81807;SDS011;71241;13.676;100.700;2024-02-15T05:52:05;45.80;;;38.60;;
81807;SDS011;71241;13.676;100.700;2024-02-15T05:54:35;41.85;;;37.35;;
81807;SDS011;71241;13.676;100.700;2024-02-15T05:57:07;44.15;;;37.30;;
81807;SDS011;71241;13.676;100.700;2024-02-15T05:59:38;38.90;;;34.72;;
81807;SDS011;71241;13.676;100.700;2024-02-15T06:02:10;42.97;;;37.97;;
81807;SDS011;71241;13.676;100.700;2024-02-15T06:04:41;44.17;;;39.50;;
81807;SDS011;71241;13.676;100.700;2024-02-15T06:07:11;43.45;;;37.95;;
81807;SDS011;71241;13.676;100.700;2024-02-15T06:09:42;40.72;;;34.75;;
81807;SDS011;71241;13.676;100.700;2024-02-15T06:12:14;45.13;;;40.33;;
81807;SDS011;71241;13.676;100.700;2024-02-15T06:14:44;43.38;;;38.80;;
81807;SDS011;71241;13.676;100.700;2024-02-15T06:17:15;39.42;;;35.58;;
81807;SDS011;71241;13.676;100.700;2024-02-15T06:19:45;41.50;;;37.58;;
81807;SDS011;71241;13.676;100.700;2024-02-15T06:22:16;42.97;;;38.75;;
81807;SDS011;71241;13.676;100.700;2024-02-15T06:24:46;46.60;;;41.58;;
81807;SDS011;71241;13.676;100.700;2024-02-15T06:27:19;49.90;;;44.33;;
81807;SDS011;71241;13.676;100.700;2024-02-15T06:29:49;69.85;;;51.90;;
81807;SDS011;71241;13.676;100.700;2024-02-15T06:32:31;43.38;;;39.00;;
81807;SDS011;71241;13.676;100.700;2024-02-15T06:35:15;46.13;;;41.15;;
81807;SDS011;71241;13.676;100.700;2024-02-15T06:37:57;42.83;;;38.53;;
81807;SDS011;71241;13.676;100.700;2024-02-15T06:40:39;44.65;;;40.17;;
81807;SDS011;71241;13.676;100.700;2024-02-15T06:43:11;45.38;;;40.58;;
81807;SDS011;71241;13.676;100.700;2024-02-15T06:45:41;42.95;;;38.63;;
81807;SDS011;71241;13.676;100.700;2024-02-15T06:48:15;40.67;;;36.47;;
81807;SDS011;71241;13.676;100.700;2024-02-15T06:50:47;43.28;;;38.95;;
81807;SDS011;71241;13.676;100.700;2024-02-15T06:53:18;44.75;;;39.92;;
81807;SDS011;71241;13.676;100.700;2024-02-15T06:55:49;44.13;;;36.35;;
81807;SDS011;71241;13.676;100.700;2024-02-15T06:58:24;41.58;;;36.78;;
81807;SDS011;71241;13.676;100.700;2024-02-15T07:00:58;37.40;;;32.13;;
81807;SDS011;71241;13.676;100.700;2024-02-15T07:06:04;38.22;;;34.35;;
81807;SDS011;71241;13.676;100.700;2024-02-15T07:08:35;37.35;;;33.53;;
81807;SDS011;71241;13.676;100.700;2024-02-15T07:11:05;41.60;;;34.03;;
81807;SDS011;71241;13.676;100.700;2024-02-15T07:13:40;39.42;;;35.30;;
81807;SDS011;71241;13.676;100.700;2024-02-15T07:16:10;38.38;;;34.35;;
81807;SDS011;71241;13.676;100.700;2024-02-15T07:18:40;37.38;;;33.33;;
81807;SDS011;71241;13.676;100.700;2024-02-15T07:21:12;38.53;;;32.45;;
81807;SDS011;71241;13.676;100.700;2024-02-15T07:23:45;37.72;;;34.00;;
81807;SDS011;71241;13.676;100.700;2024-02-15T07:26:16;37.63;;;32.00;;
81807;SDS011;71241;13.676;100.700;2024-02-15T07:28:51;34.47;;;30.98;;
81807;SDS011;71241;13.676;100.700;2024-02-15T07:31:22;30.13;;;27.00;;
81807;SDS011;71241;13.676;100.700;2024-02-15T07:33:56;33.45;;;29.75;;
81807;SDS011;71241;13.676;100.700;2024-02-15T07:36:27;35.05;;;31.27;;
81807;SDS011;71241;13.676;100.700;2024-02-15T07:38:57;32.15;;;28.77;;
81807;SDS011;71241;13.676;100.700;2024-02-15T07:41:30;34.58;;;30.52;;
81807;SDS011;71241;13.676;100.700;2024-02-15T07:44:03;34.17;;;30.15;;
81807;SDS011;71241;13.676;100.700;2024-02-15T07:46:34;33.25;;;29.73;;
81807;SDS011;71241;13.676;100.700;2024-02-15T07:49:06;33.45;;;29.95;;
81807;SDS011;71241;13.676;100.700;2024-02-15T07:51:37;32.55;;;29.20;;
81807;SDS011;71241;13.676;100.700;2024-02-15T07:54:07;31.30;;;28.00;;
81807;SDS011;71241;13.676;100.700;2024-02-15T07:56:38;30.83;;;27.30;;
81807;SDS011;71241;13.676;100.700;2024-02-15T07:59:10;29.45;;;26.25;;
81807;SDS011;71241;13.676;100.700;2024-02-15T08:01:40;38.00;;;27.23;;
81807;SDS011;71241;13.676;100.700;2024-02-15T08:04:11;32.75;;;29.45;;
81807;SDS011;71241;13.676;100.700;2024-02-15T08:06:44;32.63;;;28.73;;
81807;SDS011;71241;13.676;100.700;2024-02-15T08:09:17;32.85;;;27.05;;
81807;SDS011;71241;13.676;100.700;2024-02-15T08:11:50;30.38;;;27.08;;
81807;SDS011;71241;13.676;100.700;2024-02-15T08:14:22;34.35;;;29.05;;
81807;SDS011;71241;13.676;100.700;2024-02-15T08:16:52;31.48;;;28.42;;
81807;SDS011;71241;13.676;100.700;2024-02-15T08:19:24;30.60;;;27.33;;
81807;SDS011;71241;13.676;100.700;2024-02-15T08:22:02;29.10;;;25.27;;
81807;SDS011;71241;13.676;100.700;2024-02-15T08:24:34;33.30;;;29.83;;
81807;SDS011;71241;13.676;100.700;2024-02-15T08:27:05;30.48;;;25.30;;
81807;SDS011;71241;13.676;100.700;2024-02-15T08:29:37;30.98;;;27.52;;
81807;SDS011;71241;13.676;100.700;2024-02-15T08:32:07;31.10;;;26.15;;
81807;SDS011;71241;13.676;100.700;2024-02-15T08:34:37;29.20;;;25.67;;
81807;SDS011;71241;13.676;100.700;2024-02-15T08:37:08;35.13;;;27.42;;
81807;SDS011;71241;13.676;100.700;2024-02-15T08:39:39;34.55;;;29.13;;
81807;SDS011;71241;13.676;100.700;2024-02-15T08:42:09;33.80;;;29.77;;
81807;SDS011;71241;13.676;100.700;2024-02-15T08:44:41;32.97;;;27.90;;
81807;SDS011;71241;13.676;100.700;2024-02-15T08:47:12;28.67;;;25.30;;
81807;SDS011;71241;13.676;100.700;2024-02-15T08:49:42;37.45;;;28.80;;
81807;SDS011;71241;13.676;100.700;2024-02-15T08:52:13;33.17;;;28.65;;
81807;SDS011;71241;13.676;100.700;2024-02-15T08:54:43;33.63;;;30.15;;
81807;SDS011;71241;13.676;100.700;2024-02-15T08:57:13;36.17;;;28.25;;
81807;SDS011;71241;13.676;100.700;2024-02-15T08:59:47;33.05;;;29.42;;
81807;SDS011;71241;13.676;100.700;2024-02-15T09:02:17;34.20;;;29.85;;
81807;SDS011;71241;13.676;100.700;2024-02-15T09:04:48;31.83;;;27.35;;
81807;SDS011;71241;13.676;100.700;2024-02-15T09:07:21;37.42;;;30.10;;
81807;SDS011;71241;13.676;100.700;2024-02-15T09:09:51;34.13;;;29.23;;
81807;SDS011;71241;13.676;100.700;2024-02-15T09:12:22;32.22;;;28.80;;
81807;SDS011;71241;13.676;100.700;2024-02-15T09:14:54;31.77;;;28.30;;
81807;SDS011;71241;13.676;100.700;2024-02-15T09:17:24;33.00;;;29.05;;
81807;SDS011;71241;13.676;100.700;2024-02-15T09:19:55;34.50;;;30.75;;
81807;SDS011;71241;13.676;100.700;2024-02-15T09:22:26;33.22;;;29.35;;
81807;SDS011;71241;13.676;100.700;2024-02-15T09:24:56;38.15;;;32.67;;
81807;SDS011;71241;13.676;100.700;2024-02-15T09:27:26;35.58;;;31.60;;
81807;SDS011;71241;13.676;100.700;2024-02-15T09:29:58;33.67;;;29.92;;
81807;SDS011;71241;13.676;100.700;2024-02-15T09:32:29;34.08;;;29.17;;
81807;SDS011;71241;13.676;100.700;2024-02-15T09:34:59;31.85;;;28.45;;
81807;SDS011;71241;13.676;100.700;2024-02-15T09:37:33;34.03;;;29.17;;
81807;SDS011;71241;13.676;100.700;2024-02-15T09:40:04;32.97;;;29.27;;
81807;SDS011;71241;13.676;100.700;2024-02-15T09:42:39;33.15;;;28.23;;
81807;SDS011;71241;13.676;100.700;2024-02-15T09:45:11;31.50;;;28.25;;
81807;SDS011;71241;13.676;100.700;2024-02-15T09:47:43;32.55;;;26.80;;
81807;SDS011;71241;13.676;100.700;2024-02-15T09:50:14;31.52;;;28.40;;
81807;SDS011;71241;13.676;100.700;2024-02-15T09:52:45;28.40;;;25.50;;
81807;SDS011;71241;13.676;100.700;2024-02-15T09:55:18;32.22;;;28.38;;
81807;SDS011;71241;13.676;100.700;2024-02-15T09:57:49;30.70;;;27.30;;
81807;SDS011;71241;13.676;100.700;2024-02-15T10:00:23;29.30;;;25.63;;
81807;SDS011;71241;13.676;100.700;2024-02-15T10:02:54;32.28;;;26.75;;
81807;SDS011;71241;13.676;100.700;2024-02-15T10:05:25;30.60;;;27.40;;
81807;SDS011;71241;13.676;100.700;2024-02-15T10:07:55;31.77;;;26.50;;
81807;SDS011;71241;13.676;100.700;2024-02-15T10:10:25;30.77;;;26.65;;
81807;SDS011;71241;13.676;100.700;2024-02-15T10:12:56;31.13;;;26.17;;
81807;SDS011;71241;13.676;100.700;2024-02-15T10:15:35;32.40;;;29.20;;
81807;SDS011;71241;13.676;100.700;2024-02-15T10:18:06;31.05;;;27.77;;
81807;SDS011;71241;13.676;100.700;2024-02-15T10:20:39;29.05;;;26.00;;
81807;SDS011;71241;13.676;100.700;2024-02-15T10:23:13;32.70;;;27.92;;
81807;SDS011;71241;13.676;100.700;2024-02-15T10:25:46;30.83;;;27.52;;
81807;SDS011;71241;13.676;100.700;2024-02-15T10:28:20;36.13;;;32.42;;
81807;SDS011;71241;13.676;100.700;2024-02-15T10:30:54;35.92;;;31.30;;
81807;SDS011;71241;13.676;100.700;2024-02-15T10:33:26;37.92;;;29.58;;
81807;SDS011;71241;13.676;100.700;2024-02-15T10:36:09;32.97;;;29.77;;
81807;SDS011;71241;13.676;100.700;2024-02-15T10:38:40;33.30;;;30.10;;
81807;SDS011;71241;13.676;100.700;2024-02-15T10:41:11;33.35;;;30.10;;
81807;SDS011;71241;13.676;100.700;2024-02-15T10:43:41;37.05;;;33.42;;
81807;SDS011;71241;13.676;100.700;2024-02-15T10:46:16;32.40;;;29.17;;
81807;SDS011;71241;13.676;100.700;2024-02-15T10:48:46;32.78;;;29.45;;
81807;SDS011;71241;13.676;100.700;2024-02-15T10:51:17;31.58;;;28.30;;
81807;SDS011;71241;13.676;100.700;2024-02-15T10:53:47;32.50;;;29.30;;
81807;SDS011;71241;13.676;100.700;2024-02-15T10:56:27;29.70;;;26.83;;
81807;SDS011;71241;13.676;100.700;2024-02-15T10:59:09;30.10;;;27.30;;
81807;SDS011;71241;13.676;100.700;2024-02-15T11:01:46;28.65;;;25.73;;
81807;SDS011;71241;13.676;100.700;2024-02-15T11:04:20;30.75;;;27.52;;
81807;SDS011;71241;13.676;100.700;2024-02-15T11:06:51;30.10;;;27.02;;
81807;SDS011;71241;13.676;100.700;2024-02-15T11:09:24;26.48;;;23.83;;
81807;SDS011;71241;13.676;100.700;2024-02-15T11:11:57;29.40;;;26.55;;
81807;SDS011;71241;13.676;100.700;2024-02-15T11:14:30;28.42;;;25.80;;
81807;SDS011;71241;13.676;100.700;2024-02-15T11:17:03;28.83;;;25.83;;
81807;SDS011;71241;13.676;100.700;2024-02-15T11:19:42;29.50;;;26.85;;
81807;SDS011;71241;13.676;100.700;2024-02-15T11:22:16;26.95;;;23.98;;
81807;SDS011;71241;13.676;100.700;2024-02-15T11:24:47;31.45;;;28.48;;
81807;SDS011;71241;13.676;100.700;2024-02-15T11:27:24;27.63;;;24.85;;
81807;SDS011;71241;13.676;100.700;2024-02-15T11:29:56;28.42;;;25.38;;
81807;SDS011;71241;13.676;100.700;2024-02-15T11:32:43;30.02;;;25.65;;
81807;SDS011;71241;13.676;100.700;2024-02-15T11:35:17;27.95;;;25.08;;
81807;SDS011;71241;13.676;100.700;2024-02-15T11:37:53;26.00;;;23.17;;
81807;SDS011;71241;13.676;100.700;2024-02-15T11:40:27;27.40;;;23.80;;
81807;SDS011;71241;13.676;100.700;2024-02-15T11:42:58;28.73;;;25.40;;
81807;SDS011;71241;13.676;100.700;2024-02-15T11:45:29;25.10;;;22.40;;
81807;SDS011;71241;13.676;100.700;2024-02-15T11:48:04;29.80;;;24.35;;
81807;SDS011;71241;13.676;100.700;2024-02-15T11:50:41;34.83;;;25.95;;
81807;SDS011;71241;13.676;100.700;2024-02-15T11:53:11;25.83;;;23.17;;
81807;SDS011;71241;13.676;100.700;2024-02-15T11:55:45;31.77;;;21.98;;
81807;SDS011;71241;13.676;100.700;2024-02-15T11:58:16;25.80;;;19.65;;
81807;SDS011;71241;13.676;100.700;2024-02-15T12:00:58;23.63;;;20.55;;
81807;SDS011;71241;13.676;100.700;2024-02-15T12:03:42;25.15;;;22.52;;
81807;SDS011;71241;13.676;100.700;2024-02-15T12:06:33;23.55;;;21.15;;
81807;SDS011;71241;13.676;100.700;2024-02-15T12:09:23;25.00;;;21.52;;
81807;SDS011;71241;13.676;100.700;2024-02-15T12:12:07;24.50;;;19.10;;
81807;SDS011;71241;13.676;100.700;2024-02-15T12:14:57;24.88;;;20.90;;
81807;SDS011;71241;13.676;100.700;2024-02-15T12:17:40;25.05;;;21.33;;
81807;SDS011;71241;13.676;100.700;2024-02-15T12:20:23;25.52;;;21.85;;
81807;SDS011;71241;13.676;100.700;2024-02-15T12:22:54;27.05;;;21.60;;
81807;SDS011;71241;13.676;100.700;2024-02-15T12:25:24;26.70;;;22.33;;
81807;SDS011;71241;13.676;100.700;2024-02-15T12:27:56;27.10;;;22.27;;
81807;SDS011;71241;13.676;100.700;2024-02-15T12:30:33;26.42;;;22.75;;
81807;SDS011;71241;13.676;100.700;2024-02-15T12:33:09;26.13;;;20.33;;
81807;SDS011;71241;13.676;100.700;2024-02-15T12:38:12;23.35;;;18.92;;
81807;SDS011;71241;13.676;100.700;2024-02-15T12:43:16;27.75;;;21.27;;
81807;SDS011;71241;13.676;100.700;2024-02-15T12:45:46;27.95;;;22.63;;
81807;SDS011;71241;13.676;100.700;2024-02-15T12:48:18;29.42;;;21.02;;
81807;SDS011;71241;13.676;100.700;2024-02-15T12:50:50;26.58;;;23.08;;
81807;SDS011;71241;13.676;100.700;2024-02-15T12:55:54;26.08;;;22.92;;
81807;SDS011;71241;13.676;100.700;2024-02-15T12:58:25;26.95;;;21.05;;
81807;SDS011;71241;13.676;100.700;2024-02-15T13:00:58;25.77;;;20.52;;
81807;SDS011;71241;13.676;100.700;2024-02-15T13:03:30;26.50;;;23.33;;
81807;SDS011;71241;13.676;100.700;2024-02-15T13:06:03;27.33;;;24.33;;
81807;SDS011;71241;13.676;100.700;2024-02-15T13:11:03;27.02;;;20.17;;
81807;SDS011;71241;13.676;100.700;2024-02-15T13:13:34;23.20;;;19.30;;
81807;SDS011;71241;13.676;100.700;2024-02-15T13:16:04;27.17;;;21.10;;
81807;SDS011;71241;13.676;100.700;2024-02-15T13:18:35;26.40;;;19.92;;
81807;SDS011;71241;13.676;100.700;2024-02-15T13:21:08;20.02;;;15.80;;
81807;SDS011;71241;13.676;100.700;2024-02-15T13:23:39;23.80;;;18.67;;
81807;SDS011;71241;13.676;100.700;2024-02-15T13:26:09;24.35;;;17.90;;
81807;SDS011;71241;13.676;100.700;2024-02-15T13:28:40;27.48;;;19.48;;
81807;SDS011;71241;13.676;100.700;2024-02-15T13:33:42;28.23;;;19.98;;
81807;SDS011;71241;13.676;100.700;2024-02-15T13:36:14;24.73;;;17.58;;
81807;SDS011;71241;13.676;100.700;2024-02-15T13:38:45;27.02;;;19.50;;
81807;SDS011;71241;13.676;100.700;2024-02-15T13:41:16;28.85;;;19.67;;
81807;SDS011;71241;13.676;100.700;2024-02-15T13:43:46;29.48;;;18.33;;
81807;SDS011;71241;13.676;100.700;2024-02-15T13:46:16;28.52;;;20.63;;
81807;SDS011;71241;13.676;100.700;2024-02-15T13:48:49;26.65;;;21.80;;
81807;SDS011;71241;13.676;100.700;2024-02-15T13:51:21;28.55;;;22.73;;
81807;SDS011;71241;13.676;100.700;2024-02-15T13:53:51;28.88;;;18.45;;
81807;SDS011;71241;13.676;100.700;2024-02-15T13:56:22;23.05;;;19.02;;
81807;SDS011;71241;13.676;100.700;2024-02-15T13:58:52;24.30;;;19.90;;
81807;SDS011;71241;13.676;100.700;2024-02-15T14:01:27;31.50;;;17.20;;
81807;SDS011;71241;13.676;100.700;2024-02-15T14:03:58;23.23;;;20.48;;
81807;SDS011;71241;13.676;100.700;2024-02-15T14:06:30;22.02;;;17.65;;
81807;SDS011;71241;13.676;100.700;2024-02-15T14:09:01;22.50;;;19.90;;
81807;SDS011;71241;13.676;100.700;2024-02-15T14:11:32;27.45;;;21.30;;
81807;SDS011;71241;13.676;100.700;2024-02-15T14:14:02;25.92;;;22.40;;
81807;SDS011;71241;13.676;100.700;2024-02-15T14:16:34;22.95;;;20.02;;
81807;SDS011;71241;13.676;100.700;2024-02-15T14:19:04;23.38;;;19.60;;
81807;SDS011;71241;13.676;100.700;2024-02-15T14:21:37;27.33;;;23.42;;
81807;SDS011;71241;13.676;100.700;2024-02-15T14:24:07;27.10;;;20.65;;
81807;SDS011;71241;13.676;100.700;2024-02-15T14:26:38;25.48;;;22.35;;
81807;SDS011;71241;13.676;100.700;2024-02-15T14:29:08;26.13;;;22.77;;
81807;SDS011;71241;13.676;100.700;2024-02-15T14:31:39;27.58;;;23.42;;
81807;SDS011;71241;13.676;100.700;2024-02-15T14:34:21;25.27;;;18.92;;
81807;SDS011;71241;13.676;100.700;2024-02-15T14:36:55;24.63;;;18.98;;
81807;SDS011;71241;13.676;100.700;2024-02-15T14:39:30;29.17;;;20.08;;